Time;durP1;ratioP1;P1;durP2;ratioP2;P2;SDS_P1;SDS_P2;PMS_P1;PMS_P2;Temp;Humidity;BMP_temperature;BMP_pressure;BME280_temperature;BME280_humidity;BME280_pressure;Samples;Min_cycle;Max_cycle;Signal;HPM_P1;HPM_P2
2022/07/25 00:00:12;;;;;;;6.80;4.00;;;;;;;22.72;100.00;101014.25;5108774;28;20027;-72
2022/07/25 00:02:38;;;;;;;8.57;4.78;;;;;;;22.65;100.00;101010.00;5093909;28;20096;-73
2022/07/25 00:05:04;;;;;;;6.22;4.30;;;;;;;22.58;100.00;100995.91;5083233;28;20495;-72
2022/07/25 00:07:29;;;;;;;7.63;4.60;;;;;;;22.52;100.00;100993.44;5094664;28;20024;-72
2022/07/25 00:09:54;;;;;;;9.80;4.53;;;;;;;22.52;100.00;100996.13;5084604;28;20077;-73
2022/07/25 00:12:20;;;;;;;4.80;3.92;;;;;;;22.55;100.00;100990.66;5087834;28;20483;-72
2022/07/25 00:14:45;;;;;;;6.30;4.40;;;;;;;22.45;100.00;100979.34;5113366;28;20019;-72
2022/07/25 00:17:11;;;;;;;8.20;4.45;;;;;;;22.44;100.00;100982.94;5103579;28;20040;-72
2022/07/25 00:19:37;;;;;;;6.20;4.40;;;;;;;22.44;100.00;100977.56;5099547;28;20031;-72
2022/07/25 00:22:02;;;;;;;10.43;4.82;;;;;;;22.44;100.00;100979.41;5112025;28;20142;-72
2022/07/25 00:24:27;;;;;;;4.38;3.97;;;;;;;22.41;100.00;100977.69;5114981;28;20072;-72
2022/07/25 00:26:53;;;;;;;8.07;4.93;;;;;;;22.34;100.00;100973.38;5111240;28;20062;-72
2022/07/25 00:29:19;;;;;;;9.27;4.68;;;;;;;22.28;100.00;100966.41;5113334;28;20118;-72
2022/07/25 00:31:44;;;;;;;8.82;4.38;;;;;;;22.31;100.00;100965.44;5110079;28;20024;-72
2022/07/25 00:34:09;;;;;;;8.70;5.10;;;;;;;22.37;100.00;100959.94;5102950;28;20413;-72
2022/07/25 00:36:35;;;;;;;7.93;4.05;;;;;;;22.44;100.00;100958.81;5112990;28;20049;-73
2022/07/25 00:39:00;;;;;;;7.93;4.28;;;;;;;22.48;100.00;100955.09;5098043;28;20024;-73
2022/07/25 00:41:26;;;;;;;7.63;4.78;;;;;;;22.48;100.00;100960.47;5115577;28;20076;-73
2022/07/25 00:43:51;;;;;;;7.43;4.65;;;;;;;22.43;100.00;100949.00;5108816;28;20028;-72
2022/07/25 00:46:16;;;;;;;5.25;4.35;;;;;;;22.38;100.00;100950.94;5093678;28;20051;-72
2022/07/25 00:48:43;;;;;;;5.72;4.20;;;;;;;22.36;100.00;100942.94;5116046;28;20030;-72
2022/07/25 00:51:09;;;;;;;6.53;4.18;;;;;;;22.28;100.00;100939.59;5114595;28;20027;-73
2022/07/25 00:53:36;;;;;;;7.22;4.35;;;;;;;22.33;100.00;100942.16;5114586;28;20024;-72
2022/07/25 00:56:02;;;;;;;7.13;4.63;;;;;;;22.34;100.00;100941.19;5092611;28;20031;-73
2022/07/25 00:58:28;;;;;;;5.35;4.18;;;;;;;22.31;100.00;100933.25;5111962;28;20448;-73
2022/07/25 01:00:54;;;;;;;9.32;4.00;;;;;;;22.32;100.00;100924.31;5106302;28;20062;-73
2022/07/25 01:03:19;;;;;;;6.60;3.83;;;;;;;22.29;100.00;100914.56;5097476;28;20119;-71
2022/07/25 01:05:44;;;;;;;9.25;4.18;;;;;;;22.42;100.00;100908.81;5108477;28;20020;-72
2022/07/25 01:08:11;;;;;;;4.78;4.10;;;;;;;22.34;100.00;100909.03;5100421;28;20011;-72
2022/07/25 01:10:36;;;;;;;8.07;4.47;;;;;;;22.35;100.00;100914.38;5112769;28;20042;-71
2022/07/25 01:13:02;;;;;;;7.80;4.70;;;;;;;22.41;100.00;100907.97;5102447;28;20448;-72
2022/07/25 01:15:28;;;;;;;7.05;4.43;;;;;;;22.38;100.00;100908.03;5097040;28;20024;-72
2022/07/25 01:17:54;;;;;;;8.70;4.53;;;;;;;22.36;100.00;100915.28;5096135;28;20026;-72
2022/07/25 01:20:28;;;;;;;5.50;4.18;;;;;;;22.30;100.00;100904.69;5110466;28;20047;-72
2022/07/25 01:22:54;;;;;;;5.95;4.70;;;;;;;22.32;100.00;100909.09;5109323;28;20035;-72
2022/07/25 01:25:20;;;;;;;5.32;4.07;;;;;;;22.34;100.00;100906.34;5113596;28;20470;-72
2022/07/25 01:27:47;;;;;;;4.72;4.30;;;;;;;22.33;100.00;100899.25;5109729;28;20028;-72
2022/07/25 01:30:15;;;;;;;7.68;4.43;;;;;;;22.27;100.00;100904.78;5092524;28;20042;-73
2022/07/25 01:32:41;;;;;;;6.05;5.03;;;;;;;22.28;100.00;100895.84;5108523;28;20020;-73
2022/07/25 01:35:07;;;;;;;5.97;4.15;;;;;;;22.20;100.00;100890.72;5095987;28;20468;-72
2022/07/25 01:37:34;;;;;;;6.05;4.45;;;;;;;22.19;100.00;100881.81;5114724;28;20024;-72
2022/07/25 01:40:00;;;;;;;6.63;4.57;;;;;;;22.27;100.00;100876.19;5107310;28;20059;-71
2022/07/25 01:42:25;;;;;;;7.97;4.85;;;;;;;22.37;100.00;100872.31;5108341;28;20055;-71
2022/07/25 01:44:50;;;;;;;6.15;5.20;;;;;;;22.39;100.00;100877.63;5096498;28;20034;-72
2022/07/25 01:47:16;;;;;;;6.10;5.00;;;;;;;22.42;100.00;100869.47;5094258;28;20024;-72
2022/07/25 01:49:43;;;;;;;7.95;4.88;;;;;;;22.43;100.00;100868.56;5086564;28;20041;-72
2022/07/25 01:52:08;;;;;;;7.18;5.32;;;;;;;22.40;100.00;100866.84;5091192;28;20027;-72
2022/07/25 01:54:33;;;;;;;6.28;4.63;;;;;;;22.41;100.00;100862.38;5110831;28;20407;-72
2022/07/25 01:56:59;;;;;;;7.28;4.82;;;;;;;22.43;100.00;100862.31;5094285;28;20120;-73
2022/07/25 01:59:24;;;;;;;5.75;4.50;;;;;;;22.45;100.00;100861.34;5111008;28;20023;-72
2022/07/25 02:01:49;;;;;;;5.68;4.95;;;;;;;22.40;100.00;100855.25;5106700;28;20099;-72
2022/07/25 02:04:15;;;;;;;7.85;5.47;;;;;;;22.38;100.00;100854.41;5076616;28;20028;-74
2022/07/25 02:06:40;;;;;;;7.25;5.90;;;;;;;22.34;100.00;100852.72;5107979;28;20059;-72
2022/07/25 02:09:07;;;;;;;8.50;5.45;;;;;;;22.34;100.00;100842.94;5094541;28;20023;-73
2022/07/25 02:11:33;;;;;;;7.53;5.72;;;;;;;22.33;100.00;100846.50;5114227;28;20028;-72
2022/07/25 02:13:58;;;;;;;12.95;6.05;;;;;;;22.42;100.00;100839.13;5111481;28;20024;-73
2022/07/25 02:16:24;;;;;;;10.73;5.65;;;;;;;22.40;100.00;100836.50;5109096;28;20535;-72
2022/07/25 02:18:49;;;;;;;7.95;5.63;;;;;;;22.37;100.00;100839.28;5111218;28;20035;-72
2022/07/25 02:21:14;;;;;;;7.82;5.53;;;;;;;22.36;100.00;100832.16;5103077;28;20099;-72
2022/07/25 02:23:41;;;;;;;10.48;5.40;;;;;;;22.39;100.00;100832.06;5113442;28;20051;-72
2022/07/25 02:26:06;;;;;;;10.23;5.45;;;;;;;22.39;100.00;100830.22;5112596;28;20039;-72
2022/07/25 02:28:32;;;;;;;6.75;5.07;;;;;;;22.36;100.00;100829.47;5088350;28;20403;-73
2022/07/25 02:30:57;;;;;;;8.00;5.75;;;;;;;22.30;100.00;100833.22;5095646;28;20028;-73
2022/07/25 02:33:22;;;;;;;7.93;5.45;;;;;;;22.27;100.00;100821.69;5106460;28;20028;-73
2022/07/25 02:35:49;;;;;;;8.63;5.57;;;;;;;22.22;100.00;100825.41;5113193;28;20051;-73
2022/07/25 02:38:18;;;;;;;8.48;5.10;;;;;;;22.21;100.00;100822.78;5114354;28;20023;-72
2022/07/25 02:40:48;;;;;;;11.57;5.57;;;;;;;22.17;100.00;100822.00;5100779;28;20101;-72
2022/07/25 02:43:14;;;;;;;8.27;5.50;;;;;;;22.11;100.00;100810.59;5095418;28;20031;-72
2022/07/25 02:45:39;;;;;;;7.35;5.15;;;;;;;22.00;100.00;100813.59;5112226;28;20028;-72
2022/07/25 02:48:05;;;;;;;8.32;5.10;;;;;;;22.03;100.00;100810.81;5098802;28;20048;-73
2022/07/25 02:50:30;;;;;;;9.80;5.10;;;;;;;22.04;100.00;100807.22;5103551;28;20040;-73
2022/07/25 02:52:56;;;;;;;7.18;5.65;;;;;;;21.98;100.00;100804.75;5103480;28;20114;-72
2022/07/25 02:55:21;;;;;;;10.70;5.80;;;;;;;22.00;100.00;100810.94;5100594;28;20028;-72
2022/07/25 02:57:46;;;;;;;6.90;5.10;;;;;;;21.97;100.00;100811.91;5109941;28;20071;-71
2022/07/25 03:00:13;;;;;;;10.82;5.60;;;;;;;21.98;100.00;100808.31;5113737;28;20403;-72
2022/07/25 03:02:38;;;;;;;10.48;5.35;;;;;;;22.04;100.00;100810.81;5095252;28;20028;-72
2022/07/25 03:05:09;;;;;;;9.13;5.22;;;;;;;22.04;100.00;100812.59;5094438;28;20388;-73
2022/07/25 03:07:34;;;;;;;8.48;5.22;;;;;;;22.06;100.00;100821.47;5113387;28;20035;-73
2022/07/25 03:09:59;;;;;;;9.25;4.97;;;;;;;22.05;100.00;100819.72;5113719;28;20077;-73
2022/07/25 03:12:25;;;;;;;8.80;6.18;;;;;;;21.99;100.00;100817.19;5101750;28;20035;-73
2022/07/25 03:14:50;;;;;;;11.25;5.63;;;;;;;21.93;100.00;100806.69;5113259;28;20023;-72
2022/07/25 03:17:16;;;;;;;7.38;5.55;;;;;;;21.92;100.00;100818.34;5104196;28;20102;-73
2022/07/25 03:19:42;;;;;;;7.80;5.78;;;;;;;21.84;100.00;100815.88;5103880;28;20032;-72
2022/07/25 03:22:07;;;;;;;6.50;5.28;;;;;;;21.83;100.00;100814.16;5106078;28;20023;-73
2022/07/25 03:24:33;;;;;;;8.55;5.68;;;;;;;21.81;100.00;100813.31;5099539;28;20028;-73
2022/07/25 03:26:58;;;;;;;6.03;5.43;;;;;;;21.83;100.00;100808.78;5105469;28;20036;-73
2022/07/25 03:29:23;;;;;;;10.23;5.93;;;;;;;21.82;100.00;100813.25;5102239;28;20038;-73
2022/07/25 03:31:49;;;;;;;9.48;5.70;;;;;;;21.82;100.00;100801.69;5095681;28;20054;-72
2022/07/25 03:34:14;;;;;;;6.97;4.45;;;;;;;21.89;100.00;100809.47;5104382;28;20016;-72
2022/07/25 03:36:39;;;;;;;6.45;3.95;;;;;;;21.92;100.00;100805.84;5111869;28;20027;-72
2022/07/25 03:39:04;;;;;;;6.57;4.03;;;;;;;21.93;100.00;100810.25;5109379;28;20054;-71
2022/07/25 03:41:30;;;;;;;6.78;4.07;;;;;;;21.98;100.00;100808.31;5101784;28;20050;-72
2022/07/25 03:43:55;;;;;;;6.53;4.40;;;;;;;22.00;100.00;100800.22;5113759;28;20080;-73
2022/07/25 03:46:20;;;;;;;7.70;3.65;;;;;;;22.02;100.00;100806.41;5113698;28;20024;-72
2022/07/25 03:48:46;;;;;;;8.38;4.15;;;;;;;22.06;100.00;100805.38;5110733;28;20031;-73
2022/07/25 03:51:11;;;;;;;7.72;3.72;;;;;;;22.11;100.00;100813.28;5092167;28;20031;-73
2022/07/25 03:54:00;;;;;;;6.72;3.70;;;;;;;22.17;100.00;100803.22;5099748;28;20112;-73
2022/07/25 03:56:22;;;;;;;8.85;3.78;;;;;;;22.18;100.00;100807.66;5114048;28;20038;-73
2022/07/25 03:58:47;;;;;;;9.77;4.78;;;;;;;22.17;100.00;100813.94;5099305;28;20052;-73
2022/07/25 04:01:13;;;;;;;6.88;3.90;;;;;;;22.18;100.00;100799.63;5084597;28;20016;-72
2022/07/25 04:03:38;;;;;;;6.78;3.78;;;;;;;22.20;100.00;100802.25;5114450;28;20122;-72
2022/07/25 04:06:03;;;;;;;7.57;3.65;;;;;;;22.16;100.00;100801.47;5112704;28;20027;-72
2022/07/25 04:08:29;;;;;;;4.97;3.63;;;;;;;22.20;100.00;100797.75;5107782;28;20049;-72
2022/07/25 04:10:54;;;;;;;5.63;3.80;;;;;;;22.17;100.00;100797.88;5099084;28;20038;-73
2022/07/25 04:13:19;;;;;;;6.97;3.50;;;;;;;22.10;100.00;100788.28;5113949;28;20112;-72
2022/07/25 04:15:45;;;;;;;7.18;3.50;;;;;;;22.18;100.00;100794.28;5095424;28;20469;-71
2022/07/25 04:18:10;;;;;;;7.22;4.15;;;;;;;22.13;100.00;100796.22;5099077;28;20049;-72
2022/07/25 04:20:36;;;;;;;9.60;3.78;;;;;;;22.10;100.00;100800.78;5114047;28;20031;-72
2022/07/25 04:23:01;;;;;;;6.22;3.72;;;;;;;22.14;100.00;100797.06;5091830;28;20032;-72
2022/07/25 04:25:27;;;;;;;7.80;4.15;;;;;;;22.11;100.00;100787.38;5110416;28;20053;-73
2022/07/25 04:27:52;;;;;;;8.10;4.35;;;;;;;22.09;100.00;100781.16;5108140;28;20422;-72
2022/07/25 04:30:18;;;;;;;5.50;3.70;;;;;;;22.08;100.00;100787.44;5110116;28;20521;-72
2022/07/25 04:32:43;;;;;;;6.80;4.00;;;;;;;22.06;100.00;100787.50;5111020;28;20032;-72
2022/07/25 04:35:08;;;;;;;7.82;3.95;;;;;;;22.03;100.00;100778.66;5114258;28;20106;-73
2022/07/25 04:37:35;;;;;;;9.48;3.97;;;;;;;22.04;100.00;100778.66;5113064;28;20079;-72
2022/07/25 04:40:00;;;;;;;7.85;4.57;;;;;;;22.03;100.00;100784.03;5117163;28;20030;-72
2022/07/25 04:42:26;;;;;;;7.18;3.53;;;;;;;22.04;100.00;100781.31;5088765;28;20032;-73
2022/07/25 04:44:52;;;;;;;5.32;3.60;;;;;;;22.05;100.00;100771.47;5101645;28;20038;-72
2022/07/25 04:47:17;;;;;;;8.45;3.53;;;;;;;22.06;100.00;100775.91;5101958;28;20379;-73
2022/07/25 04:49:42;;;;;;;9.90;4.47;;;;;;;22.07;100.00;100775.00;5100010;28;20032;-72
2022/07/25 04:52:08;;;;;;;4.53;3.20;;;;;;;22.05;100.00;100777.69;5105531;28;20020;-72
2022/07/25 04:54:33;;;;;;;4.90;3.40;;;;;;;22.07;100.00;100783.03;5105087;28;20028;-73
2022/07/25 04:56:59;;;;;;;4.80;3.00;;;;;;;22.10;100.00;100782.94;5106624;28;20077;-73
2022/07/25 04:59:24;;;;;;;8.07;2.92;;;;;;;22.07;100.00;100780.34;5078590;28;20024;-71
2022/07/25 05:01:49;;;;;;;4.40;3.13;;;;;;;22.06;100.00;100778.59;5108992;28;20032;-73
2022/07/25 05:04:15;;;;;;;5.85;2.95;;;;;;;22.02;100.00;100768.91;5094345;28;20062;-72
2022/07/25 05:06:40;;;;;;;5.60;2.58;;;;;;;22.12;100.00;100773.00;5113795;28;20020;-72
2022/07/25 05:09:06;;;;;;;5.25;3.13;;;;;;;22.16;100.00;100787.19;5113071;28;20032;-73
2022/07/25 05:11:31;;;;;;;3.28;2.55;;;;;;;22.14;100.00;100792.63;5116021;28;20118;-72
2022/07/25 05:13:56;;;;;;;4.75;2.70;;;;;;;22.17;100.00;100781.78;5111316;28;20032;-72
2022/07/25 05:16:22;;;;;;;5.50;2.67;;;;;;;22.17;100.00;100781.78;5104995;28;20028;-71
2022/07/25 05:18:47;;;;;;;3.97;2.40;;;;;;;22.19;100.00;100779.94;5105894;28;20043;-72
2022/07/25 05:21:12;;;;;;;5.38;2.58;;;;;;;22.16;100.00;100777.34;5096053;28;20023;-73
2022/07/25 05:23:38;;;;;;;7.43;2.83;;;;;;;22.19;100.00;100779.94;5096405;28;20067;-71
2022/07/25 05:26:04;;;;;;;5.35;2.55;;;;;;;22.24;100.00;100786.00;5098683;28;20357;-73
2022/07/25 05:28:29;;;;;;;12.05;2.22;;;;;;;22.30;100.00;100797.47;5100641;28;20494;-72
2022/07/25 05:30:54;;;;;;;2.78;2.08;;;;;;;22.25;100.00;100792.25;5112784;28;20024;-72
2022/07/25 05:33:20;;;;;;;3.38;2.08;;;;;;;22.32;100.00;100784.91;5105114;28;20038;-73
2022/07/25 05:35:45;;;;;;;3.08;2.05;;;;;;;22.28;100.00;100794.84;5111081;28;20063;-72
2022/07/25 05:38:10;;;;;;;4.78;1.73;;;;;;;22.23;100.00;100792.31;5090293;28;20108;-72
2022/07/25 05:40:36;;;;;;;4.57;1.67;;;;;;;22.26;100.00;100796.72;5108110;28;20015;-72
2022/07/25 05:43:01;;;;;;;6.30;1.60;;;;;;;22.30;100.00;100786.75;5114944;28;20032;-72
2022/07/25 05:45:26;;;;;;;5.97;2.00;;;;;;;22.32;100.00;100791.13;5087669;28;20382;-72
2022/07/25 05:47:52;;;;;;;3.08;1.70;;;;;;;22.37;100.00;100789.22;5091173;28;20085;-73
2022/07/25 05:50:17;;;;;;;5.55;2.13;;;;;;;22.45;100.00;100788.97;5109330;28;20032;-73
2022/07/25 05:52:42;;;;;;;3.00;1.48;;;;;;;22.47;100.00;100802.31;5099298;28;20020;-72
2022/07/25 05:55:08;;;;;;;2.38;1.73;;;;;;;22.51;100.00;100804.81;5100685;28;20106;-72
2022/07/25 05:57:34;;;;;;;2.47;1.50;;;;;;;22.43;100.00;100803.34;5099849;28;20515;-71
2022/07/25 05:59:59;;;;;;;4.15;1.70;;;;;;;22.33;100.00;100800.06;5107447;28;20530;-72
2022/07/25 06:02:25;;;;;;;6.00;1.95;;;;;;;22.32;100.00;100800.97;5105737;28;20058;-71
2022/07/25 06:04:50;;;;;;;6.20;1.95;;;;;;;22.26;100.00;100809.22;5114776;28;20115;-72
2022/07/25 06:07:15;;;;;;;5.70;1.60;;;;;;;22.16;100.00;100796.09;5115682;28;20020;-71
2022/07/25 06:09:41;;;;;;;3.35;1.67;;;;;;;21.99;100.00;100788.63;5094416;28;20024;-72
2022/07/25 06:12:06;;;;;;;4.82;1.70;;;;;;;21.88;100.00;100788.97;5102451;28;20055;-72
2022/07/25 06:14:32;;;;;;;6.85;1.50;;;;;;;21.86;100.00;100804.19;5104916;28;20039;-71
2022/07/25 06:16:57;;;;;;;6.97;1.50;;;;;;;21.76;100.00;100802.75;5098230;28;20034;-72
2022/07/25 06:19:23;;;;;;;6.82;2.00;;;;;;;21.76;100.00;100801.84;5087623;28;20512;-74
2022/07/25 06:21:48;;;;;;;7.38;1.70;;;;;;;21.71;100.00;100807.38;5111842;28;20039;-73
2022/07/25 06:24:14;;;;;;;4.90;1.58;;;;;;;21.66;100.00;100799.47;5096520;28;20024;-75
2022/07/25 06:26:39;;;;;;;6.45;2.05;;;;;;;21.56;100.00;100793.50;5092612;28;20055;-72
2022/07/25 06:29:04;;;;;;;8.23;1.92;;;;;;;21.61;100.00;100798.72;5079287;28;20035;-73
2022/07/25 06:31:30;;;;;;;7.38;1.70;;;;;;;21.67;100.00;100797.66;5097076;28;20468;-74
2022/07/25 06:33:55;;;;;;;6.35;1.63;;;;;;;21.71;100.00;100799.31;5098859;28;20031;-72
2022/07/25 06:36:20;;;;;;;6.43;1.55;;;;;;;21.66;100.00;100798.59;5111976;28;20027;-72
2022/07/25 06:38:46;;;;;;;5.45;1.70;;;;;;;21.59;100.00;100799.69;5097821;28;20031;-69
2022/07/25 06:41:14;;;;;;;7.32;1.52;;;;;;;21.67;100.00;100806.56;5094358;28;20032;-67
2022/07/25 06:43:40;;;;;;;3.25;1.35;;;;;;;21.67;100.00;100797.66;5105953;28;20023;-71
2022/07/25 06:46:06;;;;;;;4.10;0.98;;;;;;;21.74;100.00;100799.22;5080305;28;20032;-72
2022/07/25 06:48:31;;;;;;;4.55;1.65;;;;;;;21.66;100.00;100801.25;5103177;28;20031;-72
2022/07/25 06:50:56;;;;;;;4.72;1.40;;;;;;;21.72;100.00;100806.44;5100108;28;20175;-72
2022/07/25 06:53:22;;;;;;;4.40;1.23;;;;;;;21.73;100.00;100797.47;5106958;28;20442;-72
2022/07/25 06:55:47;;;;;;;6.25;1.50;;;;;;;21.77;100.00;100798.25;5119514;27;20093;-71
2022/07/25 06:58:12;;;;;;;5.50;1.58;;;;;;;21.72;100.00;100798.41;5102465;28;20044;-72
2022/07/25 07:00:38;;;;;;;6.03;1.73;;;;;;;21.80;100.00;100807.09;5106366;28;20024;-72
2022/07/25 07:03:03;;;;;;;7.57;1.42;;;;;;;21.83;100.00;100801.63;5105528;28;20557;-73
2022/07/25 07:05:31;;;;;;;3.55;1.13;;;;;;;21.92;100.00;100807.63;5104430;27;20085;-72
2022/07/25 07:07:57;;;;;;;4.00;1.35;;;;;;;21.85;100.00;100818.53;5080213;28;20036;-73
2022/07/25 07:10:24;;;;;;;6.53;1.20;;;;;;;21.87;100.00;100816.69;5102248;28;20731;-72
2022/07/25 07:12:50;;;;;;;5.35;1.80;;;;;;;21.86;100.00;100819.41;5107388;28;20023;-74
2022/07/25 07:15:16;;;;;;;6.35;1.70;;;;;;;21.70;100.00;100824.34;5105390;28;20028;-72
2022/07/25 07:17:41;;;;;;;14.00;2.85;;;;;;;21.62;100.00;100818.34;5082735;28;20031;-73
2022/07/25 07:20:08;;;;;;;5.00;1.80;;;;;;;21.69;100.00;100826.16;5104632;28;20031;-73
2022/07/25 07:22:47;;;;;;;4.70;1.92;;;;;;;21.73;100.00;100819.78;5104881;28;20031;-73
2022/07/25 07:25:14;;;;;;;6.05;1.60;;;;;;;21.66;100.00;100823.59;5102489;28;20384;-72
2022/07/25 07:27:40;;;;;;;9.52;1.60;;;;;;;21.69;100.00;100822.59;5103106;28;20088;-72
2022/07/25 07:30:06;;;;;;;6.25;1.92;;;;;;;21.66;100.00;100820.91;5086586;28;20081;-72
2022/07/25 07:32:32;;;;;;;4.78;1.67;;;;;;;21.70;100.00;100819.00;5102918;28;20027;-72
2022/07/25 07:34:57;;;;;;;6.57;2.22;;;;;;;21.68;100.00;100820.84;5083084;28;20409;-72
2022/07/25 07:37:22;;;;;;;11.85;2.42;;;;;;;21.66;100.00;100822.69;5082557;28;20470;-71
2022/07/25 07:39:49;;;;;;;5.70;2.20;;;;;;;21.77;100.00;100820.59;5104013;28;20364;-72
2022/07/25 07:42:17;;;;;;;6.03;1.45;;;;;;;21.79;100.00;100824.06;5108220;28;20094;-72
2022/07/25 07:44:42;;;;;;;4.47;2.00;;;;;;;21.75;100.00;100819.75;5105660;28;20551;-73
2022/07/25 07:47:11;;;;;;;6.75;1.83;;;;;;;21.69;100.00;100818.13;5102512;28;20103;-72
2022/07/25 07:49:36;;;;;;;8.57;2.03;;;;;;;21.60;100.00;100812.19;5083983;28;20115;-70
2022/07/25 07:52:02;;;;;;;4.43;1.77;;;;;;;21.58;100.00;100806.84;5098021;28;20106;-73
2022/07/25 07:57:14;;;;;;;7.43;2.00;;;;;;;21.68;100.00;100810.13;5105669;28;20113;-72
2022/07/25 07:59:39;;;;;;;13.55;2.58;;;;;;;21.77;100.00;100809.88;5086266;28;20024;-72
2022/07/25 08:02:05;;;;;;;6.75;2.08;;;;;;;21.96;100.00;100817.31;5105999;28;20023;-72
2022/07/25 08:04:31;;;;;;;7.50;2.28;;;;;;;21.98;100.00;100812.78;5087443;28;20047;-73
2022/07/25 08:06:56;;;;;;;10.70;2.17;;;;;;;22.06;100.00;100810.75;5105196;28;20059;-72
2022/07/25 08:09:24;;;;;;;6.32;2.00;;;;;;;22.05;100.00;100809.00;5105780;28;20058;-72
2022/07/25 08:11:50;;;;;;;5.45;1.80;;;;;;;22.08;100.00;100798.16;5102114;28;20536;-71
2022/07/25 08:14:16;;;;;;;5.68;1.73;;;;;;;22.16;100.00;100796.09;5099782;28;20467;-71
2022/07/25 08:16:41;;;;;;;7.65;1.80;;;;;;;22.28;100.00;100799.34;5102326;28;20043;-72
2022/07/25 08:19:07;;;;;;;10.38;2.03;;;;;;;22.21;100.00;100801.34;5098756;28;20036;-72
2022/07/25 08:21:32;;;;;;;9.45;1.80;;;;;;;22.29;100.00;100812.69;5100511;28;20016;-71
2022/07/25 08:23:58;;;;;;;9.90;1.85;;;;;;;22.33;100.00;100813.47;5100352;28;20039;-71
2022/07/25 08:26:26;;;;;;;3.60;1.83;;;;;;;22.51;100.00;100822.72;5085687;28;20035;-72
2022/07/25 08:28:52;;;;;;;8.82;1.85;;;;;;;22.68;100.00;100830.19;5101534;28;20027;-73
2022/07/25 08:31:17;;;;;;;6.45;1.52;;;;;;;22.64;100.00;100823.19;5097771;28;20130;-72
2022/07/25 08:33:43;;;;;;;4.35;1.55;;;;;;;22.76;100.00;100825.44;5104627;28;20012;-71
2022/07/25 08:36:10;;;;;;;6.30;1.80;;;;;;;22.75;100.00;100815.66;5110419;28;20399;-72
2022/07/25 08:38:36;;;;;;;5.70;1.73;;;;;;;22.79;100.00;100822.66;5089414;28;20032;-73
2022/07/25 08:41:02;;;;;;;7.57;1.80;;;;;;;22.97;100.00;100825.63;5088831;28;20395;-72
2022/07/25 08:43:31;;;;;;;9.82;2.40;;;;;;;22.99;100.00;100832.72;5102765;28;20028;-74
2022/07/25 08:45:59;;;;;;;4.43;1.60;;;;;;;23.20;100.00;100827.53;5116202;28;20024;-73
2022/07/25 08:48:26;;;;;;;4.53;1.50;;;;;;;23.21;100.00;100821.19;5089285;28;20039;-73
2022/07/25 08:50:52;;;;;;;4.28;1.60;;;;;;;23.22;100.00;100813.13;5089616;28;20467;-72
2022/07/25 08:53:19;;;;;;;4.38;1.70;;;;;;;23.24;100.00;100824.66;5081276;28;20058;-72
2022/07/25 08:55:45;;;;;;;4.38;1.60;;;;;;;23.07;100.00;100822.56;5111605;28;20031;-73
2022/07/25 08:58:13;;;;;;;6.05;1.67;;;;;;;22.90;100.00;100824.97;5092266;28;20108;-73
2022/07/25 09:00:39;;;;;;;4.05;1.67;;;;;;;22.93;100.00;100824.00;5103935;28;20020;-73
2022/07/25 09:03:05;;;;;;;8.27;1.92;;;;;;;22.61;100.00;100818.78;5112409;28;20043;-74
2022/07/25 09:05:31;;;;;;;6.38;1.85;;;;;;;22.73;100.00;100829.13;5116564;28;20371;-73
2022/07/25 09:08:05;;;;;;;7.47;1.77;;;;;;;22.57;100.00;100825.19;5084432;28;20036;-72
2022/07/25 09:10:30;;;;;;;8.05;1.85;;;;;;;22.64;100.00;100836.59;5088181;28;20032;-72
2022/07/25 09:12:57;;;;;;;7.53;2.00;;;;;;;22.57;100.00;100841.28;5099440;28;20024;-72
2022/07/25 09:15:29;;;;;;;13.10;2.08;;;;;;;22.29;100.00;100833.22;5110797;28;20359;-72
2022/07/25 09:17:57;;;;;;;11.38;1.90;;;;;;;22.40;100.00;100831.13;5105923;28;20016;-73
2022/07/25 09:20:23;;;;;;;9.40;2.10;;;;;;;22.29;100.00;100850.22;5101393;28;20034;-72
2022/07/25 09:22:49;;;;;;;8.77;2.00;;;;;;;22.37;100.00;100858.06;5111041;28;20034;-72
2022/07/25 09:25:28;;;;;;;9.40;2.22;;;;;;;22.24;100.00;100858.38;5114358;28;20428;-73
2022/07/25 09:27:54;;;;;;;8.13;2.20;;;;;;;22.08;100.00;100866.97;5114212;28;20558;-73
2022/07/25 09:30:20;;;;;;;11.90;2.42;;;;;;;22.09;100.00;100874.97;5105434;28;20486;-71
2022/07/25 09:32:45;;;;;;;7.32;2.47;;;;;;;22.22;100.00;100881.69;5090526;28;20036;-72
2022/07/25 09:35:11;;;;;;;7.88;2.25;;;;;;;22.49;100.00;100873.72;5104975;28;20076;-73
2022/07/25 09:37:37;;;;;;;6.07;2.53;;;;;;;22.58;100.00;100856.44;5108205;28;20027;-72
2022/07/25 09:40:14;;;;;;;8.73;2.33;;;;;;;22.69;100.00;100861.44;5108167;28;20395;-72
2022/07/25 09:42:41;;;;;;;9.43;2.25;;;;;;;22.96;100.00;100873.03;5086517;28;20028;-73
2022/07/25 09:45:11;;;;;;;6.80;2.10;;;;;;;23.10;100.00;100869.91;5088421;28;20020;-71
2022/07/25 09:47:53;;;;;;;7.43;2.20;;;;;;;23.00;100.00;100879.19;5107795;28;20382;-73
2022/07/25 09:50:20;;;;;;;7.85;2.80;;;;;;;22.76;100.00;100860.31;5082666;28;20525;-72
2022/07/25 09:52:49;;;;;;;4.68;2.20;;;;;;;22.93;100.00;100851.69;5100467;28;20020;-72
2022/07/25 09:55:15;;;;;;;10.10;2.30;;;;;;;23.17;100.00;100868.78;5104572;28;20027;-72
2022/07/25 09:57:41;;;;;;;12.48;2.20;;;;;;;23.26;100.00;100864.00;5102761;28;20075;-73
2022/07/25 10:00:07;;;;;;;8.93;2.13;;;;;;;23.40;100.00;100872.44;5109160;28;20378;-73
2022/07/25 10:02:40;;;;;;;9.20;2.20;;;;;;;23.62;100.00;100872.50;5093776;28;20487;-72
2022/07/25 10:05:09;;;;;;;11.75;2.20;;;;;;;23.62;100.00;100894.00;5086508;28;20030;-74
2022/07/25 10:07:40;;;;;;;9.40;2.55;;;;;;;23.27;100.00;100892.63;5113231;28;20028;-72
2022/07/25 10:10:06;;;;;;;11.52;2.92;;;;;;;23.04;100.00;100891.56;5115252;28;20359;-72
2022/07/25 10:12:31;;;;;;;10.40;3.03;;;;;;;22.91;100.00;100907.19;5086504;28;20027;-71
2022/07/25 10:15:12;;;;;;;9.75;2.40;;;;;;;22.61;100.00;100891.19;5084246;28;20032;-72
2022/07/25 10:17:40;;;;;;;8.75;2.95;;;;;;;22.74;100.00;100899.75;5108364;28;20062;-72
2022/07/25 10:20:08;;;;;;;10.10;2.33;;;;;;;22.58;100.00;100901.19;5107063;28;20020;-74
2022/07/25 10:22:47;;;;;;;9.00;2.33;;;;;;;22.53;100.00;100894.16;5105865;28;20043;-73
2022/07/25 10:25:16;;;;;;;8.75;2.08;;;;;;;22.51;100.00;100903.19;5102921;28;20473;-73
2022/07/25 10:27:47;;;;;;;19.38;3.70;;;;;;;22.49;100.00;100911.28;5087620;28;20027;-74
2022/07/25 10:30:26;;;;;;;14.43;3.17;;;;;;;22.76;100.00;100902.38;5105102;28;20028;-71
2022/07/25 10:33:01;;;;;;;13.85;3.10;;;;;;;23.01;100.00;100907.78;5102830;28;20027;-72
2022/07/25 10:35:27;;;;;;;15.90;3.20;;;;;;;23.16;100.00;100904.59;5081271;28;20036;-72
2022/07/25 10:37:54;;;;;;;15.52;3.28;;;;;;;23.19;100.00;100920.59;5084337;28;20042;-72
2022/07/25 10:40:41;;;;;;;13.18;3.22;;;;;;;23.00;100.00;100925.69;5099771;28;20083;-72
2022/07/25 10:43:06;;;;;;;13.00;2.75;;;;;;;22.74;100.00;100922.06;5106169;28;20455;-73
2022/07/25 10:45:41;;;;;;;9.25;2.92;;;;;;;22.94;100.00;100922.31;5113692;28;20015;-72
2022/07/25 10:48:09;;;;;;;10.35;2.80;;;;;;;23.03;100.00;100924.69;5098336;28;20039;-72
2022/07/25 10:50:45;;;;;;;10.15;3.13;;;;;;;22.85;100.00;100928.91;5108633;28;20106;-72
2022/07/25 10:53:11;;;;;;;14.15;2.90;;;;;;;22.81;100.00;100930.78;5104454;28;20471;-72
2022/07/25 10:55:36;;;;;;;11.48;2.95;;;;;;;22.92;100.00;100948.34;5104524;28;20031;-72
2022/07/25 10:58:05;;;;;;;13.63;2.83;;;;;;;23.04;100.00;100939.88;5097377;28;20067;-72
2022/07/25 11:00:32;;;;;;;9.95;2.65;;;;;;;23.03;100.00;100928.28;5099348;28;20034;-72
2022/07/25 11:02:57;;;;;;;12.18;2.70;;;;;;;23.18;100.00;100932.28;5096296;28;20115;-72
2022/07/25 11:05:23;;;;;;;9.68;2.72;;;;;;;23.26;100.00;100929.31;5101775;28;20111;-71
2022/07/25 11:07:51;;;;;;;7.03;2.25;;;;;;;23.08;100.00;100933.47;5098385;28;20062;-72
2022/07/25 11:10:24;;;;;;;12.93;2.67;;;;;;;22.71;100.00;100937.41;5104705;28;20028;-72
2022/07/25 11:12:50;;;;;;;11.20;2.60;;;;;;;22.71;100.00;100935.59;5098820;28;20429;-71
2022/07/25 11:15:20;;;;;;;9.40;2.60;;;;;;;22.52;100.00;100937.97;5099907;28;20020;-70